Kezdőlap
METAR-TAF:

METAR-TAF

Repülőterek :

Boscobel Airport

Boscobel, Wisconsin, Amerikai Egyesült Államok

földrajzi szélesség: 43-09-22N, földrajzi hosszúság: 090-40-39W, magasság: 205 m

Jelenlegi meteorológiai megfigyelések

A jelentés 32 perccel ezelõtt készült, 13:26 UTC
Szélcsend
Hőmérséklet 23°C
Páratartalom 89%
Légköri nyomás 1018 hPa
Látótávolság: 14.5 km
Szórványos felhőzet 300 lábon

METAR: KOVS 281326Z AUTO 00000KT 9SM SCT003 23/21 A3005 RMK AO2 T02280211

Idő: 08:58 (13:58 UTC)


TAF: hiányzik

Meteorológiai megfigyelések és előrejelzések több, mint 4000 repülőtéren (METAR és TAF jelentéseket).

A térképen piros és sárga pontok jelzik az elérhető meteorológiai állomásokat.

Mozgassa az egeret a pont fölött, hogy megjelenjen az állomás neve.

Azután kattintson az időjárási megfigyelések és előrejelzések megtekintéséhez.

A térkép megváltoztatása: kattintson a fekete keresztel jelölt zöld gombra ráközelítéshez, a vonallal jelölt zöld gombra távolításhoz, vagy a zöld nyilakra a szomszédos térképek eléréséhez.


METAR-TAF: